Salida, CO

10:38 PM MST on December 12, 2017 (GMT -0700)
Salida

Weather History for KANK - August, 2013

Change the Weather History Date:

Tuesday, August 20, 2013

  Actual Average (KGUC) Record (KGUC)
Temperature  
Mean Temperature 70 °F -  
Max Temperature 87 °F 73 °F 82 °F (2003)
Min Temperature 53 °F 42 °F 37 °F (2004)
Cooling Degree Days 5    
Growing Degree Days 20 (Base 50)    
Moisture  
Dew Point 40 °F    
Average Humidity 38    
Maximum Humidity 66    
Minimum Humidity 11    
Precipitation  
Precipitation 0.00 in - - ()
Sea Level Pressure  
Sea Level Pressure 30.38 in    
Wind  
Wind Speed 6 mph (West)    
Max Wind Speed 15 mph    
Max Gust Speed 33 mph    
Visibility 10 miles    
Events      
Averages and records for this station are not official NWS values.
T = Trace of Precipitation, MM = Missing Value Source: NWS Daily Summary

Daily Weather History Graph

Daily Weather History Graph

Search for Another Location

Airport or City:

Trip Planner

Search our weather history database for the weather conditions in past years. The results will help you decide how hot, cold, wet, or windy it might be!

Date:

Astronomy

Aug. 20, 2013 Rise Set
Actual Time 6:23 AM MDT 7:51 PM MDT
Civil Twilight 5:55 AM MDT 8:18 PM MDT
Nautical Twilight 5:21 AM MDT 8:52 PM MDT
Astronomical Twilight 4:46 AM MDT 9:27 PM MDT
Moon 7:25 PM MDT (8/20) 5:55 AM MDT (8/20)
Length of Visible Light 14h 23m
Length of Day
13h 28m
Full, 100% of the Moon is Illuminated
Aug 20
Full
Aug 20
Full
Aug 28
Last Quarter
Sep 5
New
Sep 12
First Quarter

Hourly Weather History & Observations

Time (MDT) Temp. Dew Point Humidity Pressure Visibility Wind Dir Wind Speed Gust Speed Precip Events Conditions
12:15 AM 62.8 °F 45.0 °F 52% 30.44 in 10.0 mi WSW 5.8 mph - N/A   Mostly Cloudy
12:35 AM 62.2 °F 45.0 °F 53% 30.44 in 10.0 mi West 4.6 mph - N/A   Scattered Clouds
12:55 AM 61.5 °F 44.6 °F 54% 30.44 in 10.0 mi West 4.6 mph - N/A   Clear
1:15 AM 59.5 °F 44.2 °F 57% 30.44 in 10.0 mi Calm Calm - N/A   Scattered Clouds
1:35 AM 58.6 °F 44.2 °F 59% 30.43 in 10.0 mi WSW 8.1 mph - N/A   Clear
1:55 AM 58.3 °F 44.4 °F 60% 30.42 in 10.0 mi West 8.1 mph - N/A   Clear
2:15 AM 58.3 °F 43.5 °F 58% 30.42 in 10.0 mi West 5.8 mph - N/A   Clear
2:35 AM 57.7 °F 43.7 °F 60% 30.42 in 10.0 mi West 4.6 mph - N/A   Clear
2:55 AM 56.8 °F 43.7 °F 61% 30.42 in 10.0 mi WSW 8.1 mph - N/A   Clear
3:15 AM 56.3 °F 43.7 °F 63% 30.42 in 10.0 mi West 8.1 mph - N/A   Clear
3:35 AM 57.2 °F 43.3 °F 60% 30.42 in 10.0 mi West 4.6 mph - N/A   Clear
3:55 AM 57.7 °F 43.0 °F 58% 30.42 in 10.0 mi WNW 6.9 mph - N/A   Clear
4:15 AM 55.8 °F 43.0 °F 62% 30.41 in 10.0 mi West 5.8 mph - N/A   Clear
4:35 AM 55.4 °F 43.0 °F 63% 30.41 in 10.0 mi West 3.5 mph - N/A   Clear
4:55 AM 55.8 °F 42.8 °F 62% 30.41 in 10.0 mi West 5.8 mph - N/A   Clear
5:15 AM 57.4 °F 42.8 °F 58% 30.41 in 10.0 mi NW 5.8 mph - N/A   Clear
5:35 AM 57.6 °F 42.8 °F 58% 30.42 in 10.0 mi NNW 6.9 mph - N/A   Clear
5:55 AM 56.7 °F 42.6 °F 59% 30.42 in 10.0 mi West 4.6 mph - N/A   Clear
6:15 AM 53.8 °F 42.8 °F 66% 30.43 in 10.0 mi West 5.8 mph - N/A   Clear
6:35 AM 56.7 °F 42.3 °F 59% 30.43 in 10.0 mi NNW 8.1 mph - N/A   Clear
6:55 AM 55.8 °F 42.4 °F 61% 30.43 in 10.0 mi Calm Calm - N/A   Clear
7:15 AM 56.5 °F 42.8 °F 60% 30.43 in 10.0 mi West 4.6 mph - N/A   Clear
7:35 AM 58.1 °F 42.8 °F 57% 30.43 in 10.0 mi WNW 4.6 mph - N/A   Clear
7:55 AM 58.6 °F 42.8 °F 56% 30.43 in 10.0 mi NNW 6.9 mph - N/A   Clear
8:15 AM 60.4 °F 42.8 °F 52% 30.44 in 10.0 mi NNW 3.5 mph - N/A   Clear
8:35 AM 61.9 °F 42.3 °F 49% 30.43 in 10.0 mi NNW 4.6 mph - N/A   Clear
8:55 AM 63.9 °F 43.9 °F 48% 30.43 in 10.0 mi NNE 3.5 mph - N/A   Clear
9:15 AM 66.0 °F 44.1 °F 45% 30.42 in 10.0 mi Calm Calm - N/A   Clear
9:35 AM 68.2 °F 43.2 °F 40% 30.42 in 10.0 mi Calm Calm - N/A   Clear
9:55 AM 70.5 °F 43.2 °F 37% 30.41 in 10.0 mi North 3.5 mph - N/A   Clear
10:15 AM 71.8 °F 41.0 °F 33% 30.41 in 10.0 mi Calm Calm - N/A   Clear
10:35 AM 74.7 °F 41.2 °F 30% 30.40 in 10.0 mi Calm Calm - N/A   Clear
10:55 AM 76.1 °F 40.8 °F 28% 30.39 in 10.0 mi North 3.5 mph - N/A   Clear
11:15 AM 77.7 °F 39.6 °F 25% 30.39 in 10.0 mi Calm Calm - N/A   Clear
11:35 AM 79.9 °F 39.4 °F 23% 30.37 in 10.0 mi Calm Calm - N/A   Clear
11:55 AM 82.4 °F 37.4 °F 20% 30.37 in 10.0 mi ESE 4.6 mph - N/A   Clear
12:15 PM 84.4 °F 33.8 °F 16% 30.35 in 10.0 mi Calm Calm - N/A   Clear
12:35 PM 85.3 °F 33.3 °F 15% 30.34 in 10.0 mi ENE 4.6 mph - N/A   Clear
12:55 PM 84.2 °F 30.9 °F 15% 30.34 in 10.0 mi Calm Calm - N/A   Clear
1:15 PM 84.4 °F 30.0 °F 14% 30.34 in 10.0 mi South 3.5 mph - N/A   Clear
1:35 PM 85.3 °F 25.5 °F 11% 30.34 in 10.0 mi SW 3.5 mph - N/A   Clear
1:55 PM 87.1 °F 32.7 °F 14% 30.33 in 10.0 mi SSW 9.2 mph - N/A   Clear
2:15 PM 86.0 °F 34.5 °F 16% 30.33 in 10.0 mi WSW 9.2 mph - N/A   Clear
2:35 PM 85.1 °F 32.5 °F 15% 30.32 in 10.0 mi West 8.1 mph - N/A   Clear
2:55 PM 84.2 °F 33.3 °F 16% 30.31 in 10.0 mi West 12.7 mph 18.4 mph N/A   Scattered Clouds
3:15 PM 83.7 °F 34.9 °F 17% 30.31 in 10.0 mi West 13.8 mph - N/A   Scattered Clouds
3:35 PM 80.8 °F 37.6 °F 21% 30.31 in 10.0 mi South 9.2 mph - N/A   Clear
3:55 PM 81.1 °F 34.2 °F 18% 30.31 in 10.0 mi South 10.4 mph 17.3 mph N/A   Clear
4:15 PM 82.4 °F 35.4 °F 19% 30.30 in 10.0 mi SW 6.9 mph - N/A   Clear
4:35 PM 82.0 °F 30.4 °F 15% 30.30 in 10.0 mi South 9.2 mph 16.1 mph N/A   Clear
4:55 PM 82.9 °F 28.8 °F 14% 30.30 in 10.0 mi SSW 11.5 mph 16.1 mph N/A   Clear
5:15 PM 81.5 °F 35.8 °F 19% 30.31 in 10.0 mi WSW 3.5 mph - N/A   Scattered Clouds
5:35 PM 80.6 °F 36.7 °F 21% 30.31 in 10.0 mi WSW 5.8 mph - N/A   Mostly Cloudy
5:55 PM 79.2 °F 39.2 °F 24% 30.31 in 10.0 mi WSW 9.2 mph - N/A   Scattered Clouds
6:15 PM 79.3 °F 34.5 °F 20% 30.31 in 10.0 mi SW 11.5 mph 17.3 mph N/A   Scattered Clouds
6:35 PM 76.8 °F 38.1 °F 25% 30.31 in 10.0 mi WSW 11.5 mph - N/A   Clear
6:55 PM 77.4 °F 36.0 °F 22% 30.31 in 10.0 mi WSW 15.0 mph 20.7 mph N/A   Mostly Cloudy
7:15 PM 77.9 °F 36.1 °F 22% 30.32 in 10.0 mi South 15.0 mph 33.4 mph N/A   Overcast
7:35 PM 79.0 °F 31.5 °F 18% 30.33 in 10.0 mi Calm Calm - N/A   Overcast
7:55 PM 76.8 °F 35.4 °F 22% 30.34 in 10.0 mi SSW 5.8 mph - N/A   Overcast
8:15 PM 74.3 °F 41.0 °F 30% 30.35 in 10.0 mi WSW 9.2 mph - N/A   Scattered Clouds
8:35 PM 74.3 °F 42.6 °F 32% 30.37 in 10.0 mi West 6.9 mph 10.4 mph N/A   Mostly Cloudy
8:55 PM 74.1 °F 41.2 °F 31% 30.38 in 10.0 mi West 10.4 mph 16.1 mph N/A   Overcast
9:15 PM 73.6 °F 41.4 °F 31% 30.39 in 10.0 mi West 15.0 mph 24.2 mph N/A   Mostly Cloudy
9:35 PM 72.7 °F 41.7 °F 33% 30.40 in 10.0 mi West 11.5 mph 21.9 mph N/A   Scattered Clouds
9:55 PM 71.6 °F 43.7 °F 37% 30.39 in 10.0 mi West 12.7 mph 23.0 mph N/A   Scattered Clouds
10:15 PM 70.7 °F 43.9 °F 38% 30.39 in 10.0 mi WSW 10.4 mph 20.7 mph N/A   Scattered Clouds
10:35 PM 69.1 °F 45.5 °F 43% 30.39 in 10.0 mi WSW 9.2 mph 18.4 mph N/A   Scattered Clouds
10:55 PM 69.1 °F 44.6 °F 41% 30.39 in 10.0 mi West 12.7 mph 16.1 mph N/A   Clear
11:15 PM 68.9 °F 44.1 °F 41% 30.39 in 10.0 mi WSW 6.9 mph 16.1 mph N/A   Mostly Cloudy
11:35 PM 66.4 °F 45.3 °F 47% 30.39 in 10.0 mi SW 9.2 mph - N/A   Scattered Clouds
11:55 PM 65.5 °F 45.5 °F 48% 30.39 in 10.0 mi WSW 10.4 mph - N/A   Clear